Time,TemperatureF,DewpointF,PressureIn,WindDirection,WindDirectionDegrees,WindSpeedMPH,WindSpeedGustMPH,Humidity,HourlyPrecipIn,Conditions,Clouds,dailyrainin,SoftwareType,DateUTC
2013-06-17 00:00:00,65.0,63.0,29.91,SSW,198,0.0,0.0,93,0.00,,BKN250,0.00,VWS V14.00,2013-06-17 04:00:00,
2013-06-17 00:20:00,66.1,64.5,29.92,SSW,198,0.0,0.0,95,0.00,,BKN250,0.00,VWS V14.00,2013-06-17 04:20:00,
2013-06-17 00:40:00,63.9,62.6,29.92,SSW,198,0.0,0.0,96,0.00,,SCT250,0.00,VWS V14.00,2013-06-17 04:40:00,
2013-06-17 01:00:00,65.2,64.4,29.92,SSW,198,0.0,0.0,97,0.00,,SCT250,0.00,VWS V14.00,2013-06-17 05:00:00,
2013-06-17 01:20:00,64.8,64.2,29.92,SSW,198,0.0,0.0,98,0.00,,SCT250,0.00,VWS V14.00,2013-06-17 05:20:00,
2013-06-17 01:40:00,63.6,63.3,29.92,SSW,198,0.0,0.0,99,0.00,,SCT250,0.00,VWS V14.00,2013-06-17 05:40:00,
2013-06-17 02:00:00,62.2,62.2,29.92,SSW,198,0.0,0.0,100,0.00,,SCT250,0.00,VWS V14.00,2013-06-17 06:00:00,
2013-06-17 02:20:00,63.0,63.0,29.92,SSW,198,0.0,0.0,100,0.00,,SCT250,0.00,VWS V14.00,2013-06-17 06:20:00,
2013-06-17 02:40:00,63.4,63.4,29.92,SSW,198,0.0,0.0,100,0.00,,SCT250,0.00,VWS V14.00,2013-06-17 06:40:00,
2013-06-17 03:00:00,63.5,63.5,29.92,SSW,198,0.0,0.0,100,0.00,,SCT250,0.00,VWS V14.00,2013-06-17 07:00:00,
2013-06-17 03:20:00,63.3,63.3,29.92,SSW,198,0.0,0.0,100,0.00,,BKN250,0.00,VWS V14.00,2013-06-17 07:20:00,
2013-06-17 03:40:00,63.1,63.1,29.92,SSW,198,0.0,0.0,100,0.00,,BKN230,0.00,VWS V14.00,2013-06-17 07:40:00,
2013-06-17 04:00:00,61.9,61.9,29.93,SSW,198,0.0,0.0,100,0.00,,BKN230,0.00,VWS V14.00,2013-06-17 08:00:00,
2013-06-17 04:20:00,62.8,62.8,29.92,SSW,198,0.0,0.0,100,0.00,,BKN230,0.00,VWS V14.00,2013-06-17 08:20:00,
2013-06-17 04:40:00,63.6,63.6,29.93,SSW,198,0.0,0.0,100,0.00,,BKN240,0.00,VWS V14.00,2013-06-17 08:40:00,
2013-06-17 05:00:00,62.9,62.9,29.93,SSW,198,0.0,1.7,100,0.00,,BKN240,0.00,VWS V14.00,2013-06-17 09:00:00,
2013-06-17 05:20:00,62.8,62.8,29.93,NW,304,0.0,4.9,100,0.00,,BKN240,0.00,VWS V14.00,2013-06-17 09:20:00,
2013-06-17 05:40:00,63.1,63.1,29.94,South,186,0.0,4.7,100,0.00,,BKN240,0.00,VWS V14.00,2013-06-17 09:40:00,
2013-06-17 06:00:00,62.5,62.5,29.94,NW,312,0.0,3.5,100,0.00,,BKN240,0.00,VWS V14.00,2013-06-17 10:00:00,
2013-06-17 06:20:00,63.7,63.7,29.95,NW,312,0.0,0.0,100,0.00,,BKN240,0.00,VWS V14.00,2013-06-17 10:20:00,
2013-06-17 06:40:00,63.8,63.8,29.95,NW,312,0.0,0.0,100,0.00,,BKN240,0.00,VWS V14.00,2013-06-17 10:40:00,
2013-06-17 07:00:00,63.7,63.7,29.95,NW,312,0.0,0.0,100,0.00,,BKN240,0.00,VWS V14.00,2013-06-17 11:00:00,
2013-06-17 07:20:00,65.2,65.2,29.95,NW,312,0.0,0.0,100,0.00,,BKN240,0.00,VWS V14.00,2013-06-17 11:20:00,
2013-06-17 07:40:00,66.0,66.0,29.96,NW,312,0.0,0.0,100,0.00,,BKN250,0.00,VWS V14.00,2013-06-17 11:40:00,
2013-06-17 08:00:00,65.7,65.7,29.96,NW,312,0.0,0.0,100,0.00,,BKN250,0.00,VWS V14.00,2013-06-17 12:00:00,
2013-06-17 08:20:00,67.4,66.9,29.96,NW,312,0.0,0.0,98,0.00,,BKN250,0.00,VWS V14.00,2013-06-17 12:20:00,
2013-06-17 08:40:00,67.7,65.9,29.96,SW,214,0.0,5.8,94,0.00,,BKN250,0.00,VWS V14.00,2013-06-17 12:40:00,
2013-06-17 09:00:00,71.4,68.3,29.95,SW,214,0.0,0.0,90,0.00,,BKN250,0.00,VWS V14.00,2013-06-17 13:00:00,
2013-06-17 09:20:00,71.7,68.4,29.96,SW,214,3.5,3.5,90,0.00,,BKN250,0.00,VWS V14.00,2013-06-17 13:20:00,
2013-06-17 09:40:00,71.7,67.6,29.95,WNW,292,0.0,5.8,87,0.00,,BKN250,0.00,VWS V14.00,2013-06-17 13:40:00,
2013-06-17 10:00:00,72.0,67.2,29.96,SSW,211,0.0,7.6,85,0.00,,BKN250,0.00,VWS V14.00,2013-06-17 14:00:00,
2013-06-17 10:20:00,74.2,67.9,29.95,SSW,200,0.0,5.3,81,0.00,,BKN250,0.00,VWS V14.00,2013-06-17 14:20:00,
2013-06-17 10:40:00,76.0,67.6,29.94,West,277,0.0,5.7,75,0.00,,BKN250,0.00,VWS V14.00,2013-06-17 14:40:00,
2013-06-17 11:00:00,77.2,66.4,29.94,South,186,0.0,8.8,69,0.00,,BKN250,0.00,VWS V14.00,2013-06-17 15:00:00,
2013-06-17 11:20:00,76.7,64.7,29.93,WNW,283,2.3,7.4,66,0.00,,BKN250,0.00,VWS V14.00,2013-06-17 15:20:00,
2013-06-17 11:40:00,78.9,65.8,29.93,ESE,110,0.0,7.0,64,0.00,,BKN250,0.00,VWS V14.00,2013-06-17 15:40:00,
2013-06-17 12:00:00,79.7,64.7,29.93,WSW,252,0.0,7.6,60,0.00,,BKN250,0.00,VWS V14.00,2013-06-17 16:00:00,
2013-06-17 12:20:00,78.1,64.8,29.93,South,169,4.6,10.1,64,0.00,,BKN250,0.00,VWS V14.00,2013-06-17 16:20:00,
2013-06-17 12:40:00,77.1,64.9,29.93,North,359,0.0,7.5,66,0.00,,BKN250,0.00,VWS V14.00,2013-06-17 16:40:00,
2013-06-17 13:00:00,80.4,63.6,29.93,SSE,149,0.0,7.2,57,0.00,,BKN250,0.00,VWS V14.00,2013-06-17 17:00:00,
2013-06-17 13:20:00,81.2,62.1,29.92,SSE,156,2.5,7.0,52,0.00,,BKN250,0.00,VWS V14.00,2013-06-17 17:20:00,
2013-06-17 13:40:00,80.2,60.2,29.92,West,269,4.3,8.5,51,0.00,,SCT250,0.00,VWS V14.00,2013-06-17 17:40:00,
2013-06-17 14:00:00,81.3,61.5,29.92,NNW,339,0.0,6.9,51,0.00,,SCT250,0.00,VWS V14.00,2013-06-17 18:00:00,
2013-06-17 14:20:00,81.4,64.1,29.92,SSW,210,5.0,10.8,56,0.00,,SCT250,0.00,VWS V14.00,2013-06-17 18:20:00,
2013-06-17 14:40:00,80.5,59.6,29.91,NNE,24,0.0,8.7,49,0.00,,SCT250,0.00,VWS V14.00,2013-06-17 18:40:00,
2013-06-17 15:00:00,80.5,60.8,29.91,SW,231,0.0,5.6,51,0.00,,SCT250,0.00,VWS V14.00,2013-06-17 19:00:00,
2013-06-17 15:20:00,81.8,61.8,29.90,WNW,285,2.9,10.0,51,0.00,,SCT250,0.00,VWS V14.00,2013-06-17 19:20:00,
2013-06-17 15:40:00,77.9,61.3,29.90,SW,214,7.1,8.9,57,0.00,,SCT250,0.00,VWS V14.00,2013-06-17 19:40:00,
2013-06-17 16:00:00,79.9,63.0,29.89,SSW,200,3.2,9.3,56,0.00,,SCT250,0.00,VWS V14.00,2013-06-17 20:00:00,
2013-06-17 16:20:00,81.3,62.5,29.89,WSW,239,5.0,8.7,53,0.00,,SCT250,0.00,VWS V14.00,2013-06-17 20:20:00,
2013-06-17 16:40:00,80.5,62.5,29.88,South,177,5.5,10.6,54,0.00,,BKN250,0.00,VWS V14.00,2013-06-17 20:40:00,
2013-06-17 17:00:00,81.9,62.5,29.88,SSE,165,0.0,9.3,52,0.00,,BKN250,0.00,VWS V14.00,2013-06-17 21:00:00,
2013-06-17 17:20:00,79.3,65.4,29.88,SSE,149,4.5,6.9,63,0.00,,BKN250,0.00,VWS V14.00,2013-06-17 21:20:00,
2013-06-17 17:40:00,79.9,67.9,29.88,ESE,118,0.0,6.0,67,0.00,,BKN250,0.00,VWS V14.00,2013-06-17 21:40:00,
2013-06-17 18:00:00,77.0,66.8,29.88,SE,145,5.7,7.9,71,0.00,,BKN250,0.00,VWS V14.00,2013-06-17 22:00:00,
2013-06-17 18:20:00,78.8,67.8,29.88,SSE,162,3.4,11.4,69,0.00,,BKN250,0.00,VWS V14.00,2013-06-17 22:20:00,
2013-06-17 18:40:00,76.7,66.5,29.89,SSE,167,5.5,9.9,71,0.00,,OVC250,0.00,VWS V14.00,2013-06-17 22:40:00,
2013-06-17 19:00:00,75.0,65.7,29.89,SE,136,5.2,8.2,73,0.00,,OVC250,0.00,VWS V14.00,2013-06-17 23:00:00,
2013-06-17 19:20:00,76.5,67.8,29.89,East,100,0.0,7.0,74,0.00,,OVC250,0.00,VWS V14.00,2013-06-17 23:20:00,
2013-06-17 19:40:00,75.3,67.4,29.89,East,90,3.0,7.5,76,0.00,,OVC250,0.00,VWS V14.00,2013-06-17 23:40:00,
2013-06-17 20:00:00,74.6,67.6,29.89,SE,132,2.4,9.9,79,0.00,,OVC250,0.00,VWS V14.00,2013-06-18 00:00:00,
2013-06-17 20:20:00,72.0,65.8,29.89,SE,146,3.4,5.5,81,0.00,,OVC250,0.00,VWS V14.00,2013-06-18 00:20:00,
2013-06-17 20:40:00,72.9,69.0,29.90,SE,146,0.0,3.4,88,0.00,,BKN250,0.00,VWS V14.00,2013-06-18 00:40:00,
2013-06-17 21:00:00,72.3,69.8,29.91,SE,146,0.0,0.0,92,0.00,,BKN250,0.00,VWS V14.00,2013-06-18 01:00:00,
2013-06-17 21:20:00,71.0,69.2,29.91,SE,146,0.0,0.0,94,0.00,,BKN250,0.00,VWS V14.00,2013-06-18 01:20:00,
2013-06-17 21:40:00,70.2,68.4,29.91,SSE,149,0.0,5.8,94,0.00,,SCT250,0.00,VWS V14.00,2013-06-18 01:40:00,
2013-06-17 22:00:00,67.8,66.0,29.91,SSE,166,0.0,7.0,94,0.00,,SCT250,0.00,VWS V14.00,2013-06-18 02:00:00,
2013-06-17 22:20:00,69.6,67.9,29.92,SSW,195,0.0,6.0,94,0.00,,SCT250,0.00,VWS V14.00,2013-06-18 02:20:00,
2013-06-17 22:40:00,68.6,67.2,29.92,South,170,0.0,5.4,95,0.00,,SCT250,0.00,VWS V14.00,2013-06-18 02:40:00,
2013-06-17 23:00:00,68.5,67.6,29.92,ESE,122,0.0,5.2,97,0.00,,SCT250,0.00,VWS V14.00,2013-06-18 03:00:00,
2013-06-17 23:20:00,68.2,67.7,29.93,WSW,245,0.0,3.4,98,0.00,,BKN250,0.00,VWS V14.00,2013-06-18 03:20:00,
2013-06-17 23:40:00,69.1,68.8,29.92,WSW,245,0.0,0.0,99,0.00,,BKN250,0.00,VWS V14.00,2013-06-18 03:40:00,